AQQ10 IFIS: Internet Flight Information System
logo dgac
Viernes 01 de Julio del 2022
Buscar por aerodromo o helipuerto
Ingrese nombre de aeródromo, localidad o designador OACI:
METAR del 01-07-2022 a las 14:00 UTC
Para mayor información visite www.meteochile.cl
METAR SCIP 011400Z 01005KT 9999 SCT030 BKN040 17/15 Q1026 NOSIG
Viento: dirección 010 grados, velocidad 5 nudos
Visibilidad: 10 km o más
Nubes: Nubosidad parcial a 3000 pies sobre el nivel del aeródromo
Nubes: Nublado a 4000 pies sobre el nivel del aeródromo
Temperatura: 17 °C
Rocío: 15 °C
Humedad_relativa: 88%
Presión: 1026 hPa
No se esperan cambios significativos en las próximas 2 horas
METAR del 01-07-2022 a las 13:00 UTC
Para mayor información visite www.meteochile.cl
METAR SCIP 011300Z VRB02KT 9999 SCT020 BKN040 17/16 Q1026 NOSIG
Viento: dirección variable, velocidad 2 nudos
Visibilidad: 10 km o más
Nubes: Nubosidad parcial a 2000 pies sobre el nivel del aeródromo
Nubes: Nublado a 4000 pies sobre el nivel del aeródromo
Temperatura: 17 °C
Rocío: 16 °C
Humedad_relativa: 94%
Presión: 1026 hPa
No se esperan cambios significativos en las próximas 2 horas
METAR del 01-07-2022 a las 12:00 UTC
Para mayor información visite www.meteochile.cl
METAR SCIP 011200Z 36004KT 9999 -SHRA SCT020 BKN040 17/16 Q1026 NOSIG
Viento: dirección 360 grados, velocidad 4 nudos
Visibilidad: 10 km o más
Débil ChubascosLluvia
Nubes: Nubosidad parcial a 2000 pies sobre el nivel del aeródromo
Nubes: Nublado a 4000 pies sobre el nivel del aeródromo
Temperatura: 17 °C
Rocío: 16 °C
Humedad_relativa: 94%
Presión: 1026 hPa
No se esperan cambios significativos en las próximas 2 horas
METAR del 01-07-2022 a las 11:00 UTC
Para mayor información visite www.meteochile.cl
METAR SCIP 011100Z 36006KT 250V020 9999 SCT020 BKN030 17/16 Q1026 NOSIG
Viento: dirección 360 grados, velocidad 6 nudos
Viento con dirección variable entre 250 y 020 grados
Visibilidad: 10 km o más
Nubes: Nubosidad parcial a 2000 pies sobre el nivel del aeródromo
Nubes: Nublado a 3000 pies sobre el nivel del aeródromo
Temperatura: 17 °C
Rocío: 16 °C
Humedad_relativa: 94%
Presión: 1026 hPa
No se esperan cambios significativos en las próximas 2 horas
METAR del 01-07-2022 a las 10:00 UTC
Para mayor información visite www.meteochile.cl
METAR SCIP 011000Z 01003KT 350V060 9999 SCT020 BKN030 17/16 Q1027 NOSIG
Viento: dirección 010 grados, velocidad 3 nudos
Viento con dirección variable entre 350 y 060 grados
Visibilidad: 10 km o más
Nubes: Nubosidad parcial a 2000 pies sobre el nivel del aeródromo
Nubes: Nublado a 3000 pies sobre el nivel del aeródromo
Temperatura: 17 °C
Rocío: 16 °C
Humedad_relativa: 94%
Presión: 1027 hPa
No se esperan cambios significativos en las próximas 2 horas
METAR del 01-07-2022 a las 09:00 UTC
Para mayor información visite www.meteochile.cl
METAR SCIP 010900Z 02005KT 9999 FEW020 BKN040 16/15 Q1027 NOSIG
Viento: dirección 020 grados, velocidad 5 nudos
Visibilidad: 10 km o más
Nubes: Escasa nubosidad a 2000 pies sobre el nivel del aeródromo
Nubes: Nublado a 4000 pies sobre el nivel del aeródromo
Temperatura: 16 °C
Rocío: 15 °C
Humedad_relativa: 94%
Presión: 1027 hPa
No se esperan cambios significativos en las próximas 2 horas
METAR del 01-07-2022 a las 08:00 UTC
Para mayor información visite www.meteochile.cl
METAR SCIP 010800Z 00000KT 9999 SCT020 BKN030 16/15 Q1027 NOSIG
Visibilidad: 10 km o más
Nubes: Nubosidad parcial a 2000 pies sobre el nivel del aeródromo
Nubes: Nublado a 3000 pies sobre el nivel del aeródromo
Temperatura: 16 °C
Rocío: 15 °C
Humedad_relativa: 94%
Presión: 1027 hPa
No se esperan cambios significativos en las próximas 2 horas
METAR del 01-07-2022 a las 07:00 UTC
Para mayor información visite www.meteochile.cl
METAR SCIP 010700Z 02004KT 9999 SCT020 15/15 Q1027 NOSIG
Viento: dirección 020 grados, velocidad 4 nudos
Visibilidad: 10 km o más
Nubes: Nubosidad parcial a 2000 pies sobre el nivel del aeródromo
Temperatura: 15 °C
Rocío: 15 °C
Humedad_relativa: 100%
Presión: 1027 hPa
No se esperan cambios significativos en las próximas 2 horas
METAR del 01-07-2022 a las 06:00 UTC
Para mayor información visite www.meteochile.cl
METAR SCIP 010600Z 03005KT 9999 SCT020 SCT030 16/15 Q1027 NOSIG
Viento: dirección 030 grados, velocidad 5 nudos
Visibilidad: 10 km o más
Nubes: Nubosidad parcial a 2000 pies sobre el nivel del aeródromo
Nubes: Nubosidad parcial a 3000 pies sobre el nivel del aeródromo
Temperatura: 16 °C
Rocío: 15 °C
Humedad_relativa: 94%
Presión: 1027 hPa
No se esperan cambios significativos en las próximas 2 horas
METAR del 01-07-2022 a las 05:00 UTC
Para mayor información visite www.meteochile.cl
METAR SCIP 010500Z 00000KT 9999 SCT020 BKN030 17/16 Q1027 NOSIG
Visibilidad: 10 km o más
Nubes: Nubosidad parcial a 2000 pies sobre el nivel del aeródromo
Nubes: Nublado a 3000 pies sobre el nivel del aeródromo
Temperatura: 17 °C
Rocío: 16 °C
Humedad_relativa: 94%
Presión: 1027 hPa
No se esperan cambios significativos en las próximas 2 horas